Cozumel International Airport
MMCZ : now visible

Airfield :











YOU CAN JOIN US ON...

 
LOGIN :

Register | Disclaimer

   EN    FR    IT 

 









Legend :    VFR   Marginal VFR   IFR   Intensive IFR   Very Intensive IFR
Visi :
Ceiling :
>= 8 km
>= 3000ft
5 to 8 km
1000 to 3000 ft
1500m to 5 km
500 to 1000 ft
800 to 1500m
200 to 500 ft
< 800m
< 200 ft
Symbols :   Thunderstorms  Fog  Heavy snow  Heavy precipitations  Wind > 20 kt






- Airport Elevation : 15 ft
- IATA code : CZM


MMCZ - Cozumel International

CURRENT METAR :
  • 112043Z 08003KT 8SM SCT015 BKN100 BKN250 26/22 A3004 RMK SLP177 57023 934 8/468 CB N

EXPIRED METARs :
  • 111944Z 10006KT 7SM SCT015CB BKN080 BKN250 26/23 A3006 RMK 8/368 PCPN E
  • 111845Z 09006KT 7SM SCT015CB BKN080 BKN250 26/23 A3007 RMK 8/368 SC

TAF AMD TAF MMCZ
Valid from the 11 at 20:00 until the 13 at 00:00 UTC


112001Z 1120/1224 10010KT P6SM SCT015CB BKN080
TEMPO 1120/1124 VC RA
FM120100 07005KT P6SM SCT015
BECMG 1211/1212 6SM HZ BKN015
FM121600 05008KT 6SM HZ SCT015
BECMG 1220/1221 05012KT



MET'MAP, your aeronautical weather chart ! - Copyright ORBIFLY December 2007 - Disclaimer

ORBIFLY MET'MAP TEAM :

Programming & Development : Alexandra Zaïnal
Concept & original design : Baudouin d'Aumeries
Assistance for programming : Marc-Olivier Méhu
Technical & hardware support : Manuel Goepfert

Contact : metmap@orbifly.com




SOURCES & CREDITS :

   NOAA       Earth
Advisory